Time;durP1;ratioP1;P1;durP2;ratioP2;P2;SDS_P1;SDS_P2;PMS_P1;PMS_P2;Temp;Humidity;BMP_temperature;BMP_pressure;BME280_temperature;BME280_humidity;BME280_pressure;Samples;Min_cycle;Max_cycle;Signal;HPM_P1;HPM_P2
2024/02/29 00:01:31;;;;;;;0.50;0.50;;;16.30;73.10;;;;;;5006108;28;20050;-92
2024/02/29 00:03:56;;;;;;;0.50;0.50;;;16.30;73.20;;;;;;5003621;28;20042;-89
2024/02/29 00:06:22;;;;;;;0.40;0.40;;;16.30;73.20;;;;;;4989530;28;20046;-92
2024/02/29 00:08:48;;;;;;;0.40;0.40;;;16.30;73.20;;;;;;5004054;28;20046;-90
2024/02/29 00:11:14;;;;;;;0.63;0.63;;;16.30;73.10;;;;;;5003579;28;20056;-89
2024/02/29 00:13:39;;;;;;;0.45;0.45;;;16.30;73.20;;;;;;5003192;28;20598;-83
2024/02/29 00:16:05;;;;;;;0.38;0.38;;;16.30;73.20;;;;;;5006555;28;20145;-87
2024/02/29 00:18:30;;;;;;;0.40;0.40;;;16.30;73.10;;;;;;5019149;28;20542;-86
2024/02/29 00:20:56;;;;;;;0.40;0.40;;;16.20;73.20;;;;;;5017083;28;20069;-86
2024/02/29 00:23:21;;;;;;;0.38;0.38;;;16.30;73.10;;;;;;5005129;28;20087;-86
2024/02/29 00:25:47;;;;;;;0.30;0.30;;;16.30;73.10;;;;;;5002499;28;20463;-87
2024/02/29 00:28:13;;;;;;;0.50;0.50;;;16.20;73.00;;;;;;5005592;28;20041;-87
2024/02/29 00:30:38;;;;;;;0.50;0.50;;;16.30;73.10;;;;;;5005853;28;20140;-87
2024/02/29 00:33:04;;;;;;;0.40;0.40;;;16.20;73.10;;;;;;5005458;28;20042;-87
2024/02/29 00:35:31;;;;;;;0.40;0.40;;;16.30;73.10;;;;;;5029381;28;20545;-87
2024/02/29 00:37:57;;;;;;;0.40;0.40;;;16.20;73.00;;;;;;5015901;28;20049;-91
2024/02/29 00:40:23;;;;;;;0.40;0.40;;;16.20;73.20;;;;;;5008491;28;20034;-89
2024/02/29 00:42:49;;;;;;;0.40;0.40;;;16.30;73.10;;;;;;5004162;28;20554;-88
2024/02/29 00:45:15;;;;;;;0.43;0.43;;;16.30;73.00;;;;;;5021500;28;20057;-88
2024/02/29 00:47:40;;;;;;;0.35;0.35;;;16.30;73.10;;;;;;5006002;28;20037;-88
2024/02/29 00:50:07;;;;;;;0.40;0.40;;;16.20;73.00;;;;;;5010391;28;20533;-89
2024/02/29 00:52:32;;;;;;;0.40;0.40;;;16.20;73.10;;;;;;5004283;28;20560;-87
2024/02/29 00:54:58;;;;;;;1.38;0.40;;;16.20;73.00;;;;;;5020855;28;20136;-87
2024/02/29 00:57:23;;;;;;;0.22;0.22;;;16.20;73.10;;;;;;5007250;28;20041;-88
2024/02/29 00:59:49;;;;;;;0.40;0.40;;;16.20;73.20;;;;;;5006951;28;21071;-88
2024/02/29 01:02:14;;;;;;;0.35;0.35;;;16.20;73.10;;;;;;5006418;28;20037;-86
2024/02/29 01:04:40;;;;;;;0.30;0.30;;;16.20;73.20;;;;;;4990457;28;20029;-87
2024/02/29 01:07:06;;;;;;;0.30;0.30;;;16.20;73.20;;;;;;5005402;28;20056;-89
2024/02/29 01:09:32;;;;;;;0.40;0.40;;;16.20;73.20;;;;;;5007011;28;20049;-89
2024/02/29 01:11:57;;;;;;;0.40;0.40;;;16.20;73.20;;;;;;5005529;28;20054;-88
2024/02/29 01:14:23;;;;;;;0.40;0.40;;;16.20;73.10;;;;;;5008032;28;20088;-87
2024/02/29 01:16:48;;;;;;;0.25;0.25;;;16.20;73.10;;;;;;5020444;28;20048;-88
2024/02/29 01:19:14;;;;;;;0.30;0.30;;;16.20;73.10;;;;;;5002534;28;20478;-89
2024/02/29 01:21:41;;;;;;;0.30;0.30;;;16.20;73.10;;;;;;5007158;28;20041;-88
2024/02/29 01:24:06;;;;;;;0.20;0.20;;;16.20;73.20;;;;;;5007319;28;20042;-88
2024/02/29 01:26:33;;;;;;;0.20;0.20;;;16.20;73.00;;;;;;4986755;28;20393;-90
2024/02/29 01:28:58;;;;;;;0.30;0.30;;;16.20;73.10;;;;;;5017087;28;20416;-89
2024/02/29 01:31:24;;;;;;;0.30;0.30;;;16.20;73.10;;;;;;4992241;28;20038;-90
2024/02/29 01:33:49;;;;;;;0.30;0.30;;;16.20;73.20;;;;;;4990810;28;20546;-89
2024/02/29 01:36:15;;;;;;;0.30;0.30;;;16.20;73.10;;;;;;5006731;28;20416;-86
2024/02/29 01:38:40;;;;;;;0.10;0.10;;;16.20;73.90;;;;;;5005640;28;20041;-88
2024/02/29 01:41:06;;;;;;;0.13;0.13;;;16.10;73.20;;;;;;5005002;28;20060;-86
2024/02/29 01:43:32;;;;;;;0.20;0.20;;;16.20;73.20;;;;;;5004905;28;20137;-85
2024/02/29 01:46:12;;;;;;;0.20;0.20;;;16.20;73.20;;;;;;4992096;28;20040;-88
2024/02/29 01:48:38;;;;;;;0.28;0.28;;;16.20;73.20;;;;;;5013447;28;20096;-91
2024/02/29 01:51:04;;;;;;;0.30;0.30;;;16.10;73.10;;;;;;5004413;28;20038;-89
2024/02/29 01:53:29;;;;;;;0.20;0.20;;;16.10;73.10;;;;;;5004894;28;20057;-89
2024/02/29 01:55:55;;;;;;;0.20;0.20;;;16.10;73.10;;;;;;5002918;28;20034;-88
2024/02/29 01:58:21;;;;;;;0.30;0.30;;;16.10;73.10;;;;;;5007545;28;20423;-89
2024/02/29 02:00:46;;;;;;;0.30;0.30;;;16.10;73.10;;;;;;5011015;28;20392;-87
2024/02/29 02:03:12;;;;;;;0.20;0.20;;;16.10;73.00;;;;;;5020174;28;20045;-91
2024/02/29 02:05:37;;;;;;;0.20;0.20;;;16.10;73.00;;;;;;5020229;28;20054;-90
2024/02/29 02:08:03;;;;;;;0.20;0.20;;;16.10;73.10;;;;;;5004628;28;20507;-89
2024/02/29 02:10:29;;;;;;;0.22;0.22;;;16.10;73.00;;;;;;5028518;28;20095;-90
2024/02/29 02:12:55;;;;;;;0.30;0.22;;;16.10;73.00;;;;;;5003602;28;20037;-90
2024/02/29 02:15:20;;;;;;;0.60;0.30;;;16.10;73.10;;;;;;5021134;28;20503;-90
2024/02/29 02:17:49;;;;;;;0.20;0.20;;;16.10;73.10;;;;;;5031601;28;20041;-90
2024/02/29 02:20:17;;;;;;;0.20;0.20;;;16.10;73.10;;;;;;5020531;28;20056;-90
2024/02/29 02:22:42;;;;;;;0.00;0.00;;;16.10;73.40;;;;;;5007956;28;20049;-89
2024/02/29 02:25:08;;;;;;;0.20;0.20;;;16.10;73.20;;;;;;5016601;28;20030;-90
2024/02/29 02:27:33;;;;;;;0.22;0.22;;;16.10;73.30;;;;;;5006405;28;20188;-90
2024/02/29 02:29:59;;;;;;;0.30;0.28;;;16.10;73.10;;;;;;5007392;28;20533;-90
2024/02/29 02:32:25;;;;;;;0.20;0.20;;;16.10;73.20;;;;;;4985557;28;20049;-89
2024/02/29 02:34:50;;;;;;;0.20;0.20;;;16.10;73.20;;;;;;5001790;28;20042;-88
2024/02/29 02:37:16;;;;;;;0.17;0.17;;;16.10;73.20;;;;;;5004752;28;20054;-87
2024/02/29 02:39:41;;;;;;;0.17;0.17;;;16.10;73.20;;;;;;4988264;28;20045;-89
2024/02/29 02:42:07;;;;;;;0.25;0.25;;;16.10;73.10;;;;;;5019924;28;20156;-89
2024/02/29 02:44:33;;;;;;;0.20;0.20;;;16.10;73.20;;;;;;4986252;28;20278;-89
2024/02/29 02:46:58;;;;;;;0.20;0.20;;;16.10;73.20;;;;;;5006546;28;20104;-89
2024/02/29 02:49:24;;;;;;;0.20;0.20;;;16.10;73.20;;;;;;5005133;28;20057;-90
2024/02/29 02:51:49;;;;;;;0.10;0.10;;;16.00;73.20;;;;;;5018897;28;20049;-89
2024/02/29 02:54:15;;;;;;;0.17;0.17;;;16.10;73.20;;;;;;5007077;28;20107;-89
2024/02/29 02:56:40;;;;;;;0.20;0.20;;;16.10;73.30;;;;;;4986481;28;20037;-88
2024/02/29 02:59:06;;;;;;;0.30;0.30;;;16.10;73.20;;;;;;5005821;28;20117;-88
2024/02/29 03:01:31;;;;;;;0.20;0.20;;;16.00;73.20;;;;;;5004545;28;20504;-92
2024/02/29 03:03:57;;;;;;;0.22;0.22;;;16.00;73.30;;;;;;5006483;28;20515;-92
2024/02/29 03:06:23;;;;;;;0.20;0.20;;;16.10;73.30;;;;;;5003315;28;20050;-91
2024/02/29 03:08:49;;;;;;;0.17;0.10;;;16.10;73.30;;;;;;5009615;28;20072;-87
2024/02/29 03:11:14;;;;;;;0.10;0.10;;;16.00;73.20;;;;;;5007162;28;20122;-89
2024/02/29 03:13:40;;;;;;;0.17;0.17;;;16.00;73.20;;;;;;5005539;28;20077;-86
2024/02/29 03:16:05;;;;;;;0.28;0.20;;;16.00;73.20;;;;;;5019788;28;20049;-85
2024/02/29 03:18:31;;;;;;;0.10;0.10;;;16.00;73.20;;;;;;5008017;28;20049;-85
2024/02/29 03:20:56;;;;;;;0.10;0.10;;;16.10;73.20;;;;;;4988742;28;20048;-86
2024/02/29 03:23:22;;;;;;;0.22;0.22;;;16.00;73.10;;;;;;5007903;28;20450;-88
2024/02/29 03:25:47;;;;;;;0.20;0.20;;;16.00;73.90;;;;;;5004802;28;20050;-86
2024/02/29 03:28:13;;;;;;;0.20;0.20;;;16.00;73.20;;;;;;5002563;28;20077;-85
2024/02/29 03:30:38;;;;;;;0.10;0.10;;;16.00;73.10;;;;;;5005880;28;20506;-88
2024/02/29 03:33:04;;;;;;;0.20;0.20;;;16.00;73.20;;;;;;5006094;28;20794;-90
2024/02/29 03:35:30;;;;;;;0.10;0.10;;;16.00;73.20;;;;;;5009259;28;20430;-89
2024/02/29 03:37:55;;;;;;;0.10;0.10;;;16.00;73.10;;;;;;5006184;28;20529;-89
2024/02/29 03:40:21;;;;;;;0.13;0.13;;;16.00;74.00;;;;;;5003093;28;20492;-89
2024/02/29 03:42:46;;;;;;;0.10;0.10;;;16.00;73.20;;;;;;5006204;28;20069;-89
2024/02/29 03:45:12;;;;;;;0.20;0.20;;;16.00;73.20;;;;;;5004900;28;20042;-91
2024/02/29 03:47:38;;;;;;;0.10;0.10;;;16.00;73.20;;;;;;5005238;28;20074;-91
2024/02/29 03:50:04;;;;;;;0.10;0.10;;;16.00;73.20;;;;;;5002981;28;20054;-92
2024/02/29 03:52:30;;;;;;;0.10;0.10;;;16.00;73.20;;;;;;4988864;28;20091;-91
2024/02/29 03:54:55;;;;;;;0.10;0.10;;;16.00;73.20;;;;;;4988126;28;20041;-91
2024/02/29 03:57:21;;;;;;;0.17;0.17;;;16.00;73.20;;;;;;5003026;28;20080;-92
2024/02/29 03:59:47;;;;;;;0.10;0.10;;;15.90;73.00;;;;;;4989448;28;20045;-90
2024/02/29 04:02:13;;;;;;;0.10;0.10;;;16.00;73.10;;;;;;5001401;28;20042;-87
2024/02/29 04:04:39;;;;;;;0.15;0.15;;;16.00;73.10;;;;;;5014250;28;20049;-88
2024/02/29 04:07:05;;;;;;;0.10;0.10;;;16.00;73.10;;;;;;5022338;28;20052;-87
2024/02/29 04:09:31;;;;;;;0.10;0.10;;;16.00;73.00;;;;;;5013235;28;20427;-88
2024/02/29 04:11:56;;;;;;;0.10;0.10;;;16.00;73.00;;;;;;4999157;28;20127;-88
2024/02/29 04:14:22;;;;;;;0.17;0.10;;;16.00;73.10;;;;;;5001233;28;20049;-88
2024/02/29 04:16:47;;;;;;;0.10;0.10;;;16.00;73.10;;;;;;5014699;28;20526;-88
2024/02/29 04:19:13;;;;;;;0.70;0.10;;;16.00;73.90;;;;;;4999487;28;20527;-87
2024/02/29 04:21:43;;;;;;;0.10;0.10;;;16.00;73.10;;;;;;4983003;28;20472;-89
2024/02/29 04:24:08;;;;;;;0.32;0.32;;;16.00;73.00;;;;;;5001835;28;20191;-88
2024/02/29 04:26:34;;;;;;;0.22;0.22;;;16.00;73.00;;;;;;5005057;28;20512;-88
2024/02/29 04:28:59;;;;;;;0.10;0.10;;;16.00;73.00;;;;;;5002751;28;20531;-86
2024/02/29 04:31:25;;;;;;;0.10;0.10;;;16.00;73.00;;;;;;5000238;28;20459;-87
2024/02/29 04:33:50;;;;;;;0.15;0.10;;;16.00;73.10;;;;;;4980998;28;20038;-87
2024/02/29 04:36:16;;;;;;;0.10;0.10;;;16.00;73.20;;;;;;5021944;28;20042;-92
2024/02/29 04:38:41;;;;;;;0.35;0.10;;;15.90;72.90;;;;;;5006282;28;20038;-90
2024/02/29 04:41:08;;;;;;;0.13;0.08;;;16.00;73.00;;;;;;5006506;28;20399;-90
2024/02/29 04:43:34;;;;;;;0.10;0.10;;;15.90;72.90;;;;;;5006483;28;20037;-90
2024/02/29 04:46:00;;;;;;;0.00;0.00;;;16.00;73.00;;;;;;5003908;28;20057;-89
2024/02/29 04:48:26;;;;;;;0.10;0.10;;;16.00;73.10;;;;;;5003767;28;20034;-89
2024/02/29 04:50:51;;;;;;;0.10;0.10;;;15.90;73.00;;;;;;5004640;28;20050;-90
2024/02/29 04:53:17;;;;;;;0.17;0.17;;;16.00;73.00;;;;;;5005897;28;20077;-90
2024/02/29 04:55:43;;;;;;;0.10;0.10;;;15.90;72.90;;;;;;5000427;28;20049;-88
2024/02/29 04:58:08;;;;;;;0.17;0.10;;;16.00;73.00;;;;;;5014793;28;20038;-79
2024/02/29 05:00:34;;;;;;;0.20;0.20;;;16.00;72.90;;;;;;4994785;28;20045;-79
2024/02/29 05:02:59;;;;;;;0.10;0.10;;;15.90;72.90;;;;;;5000623;28;20034;-79
2024/02/29 05:05:27;;;;;;;0.20;0.10;;;16.00;73.00;;;;;;4999175;28;20034;-78
2024/02/29 05:07:53;;;;;;;0.10;0.10;;;15.90;72.90;;;;;;5001611;28;20042;-78
2024/02/29 05:10:19;;;;;;;0.17;0.10;;;15.90;72.90;;;;;;5015523;28;20045;-78
2024/02/29 05:12:49;;;;;;;0.10;0.10;;;15.90;73.00;;;;;;4997912;28;20037;-78
2024/02/29 05:15:19;;;;;;;0.10;0.10;;;15.90;72.90;;;;;;5004087;28;20034;-80
2024/02/29 05:17:46;;;;;;;0.10;0.08;;;15.90;72.90;;;;;;5006109;28;20046;-79
2024/02/29 05:20:12;;;;;;;0.08;0.08;;;15.90;72.90;;;;;;5007668;28;20037;-80
2024/02/29 05:22:37;;;;;;;0.15;0.10;;;15.90;73.00;;;;;;5006193;28;20052;-80
2024/02/29 05:25:03;;;;;;;0.10;0.10;;;15.90;73.00;;;;;;5019912;28;20040;-80
2024/02/29 05:27:29;;;;;;;0.00;0.00;;;15.90;73.00;;;;;;5008368;28;20132;-79
2024/02/29 05:29:56;;;;;;;0.13;0.13;;;15.90;72.90;;;;;;5009527;28;20046;-79
2024/02/29 05:32:22;;;;;;;0.10;0.10;;;15.90;73.00;;;;;;5007010;28;20067;-78
2024/02/29 05:34:47;;;;;;;0.63;0.20;;;15.90;73.00;;;;;;5005095;28;20361;-79
2024/02/29 05:37:13;;;;;;;0.10;0.10;;;15.90;72.90;;;;;;5005147;28;20037;-78
2024/02/29 05:39:38;;;;;;;1.42;0.43;;;15.90;72.90;;;;;;5007290;28;20571;-79
2024/02/29 05:42:04;;;;;;;0.10;0.10;;;15.90;73.70;;;;;;5004885;28;20042;-80
2024/02/29 05:44:30;;;;;;;0.10;0.10;;;15.90;73.00;;;;;;4990365;28;20054;-78
2024/02/29 05:46:57;;;;;;;0.75;0.20;;;15.90;73.00;;;;;;5005611;28;20603;-78
2024/02/29 05:49:22;;;;;;;0.10;0.10;;;15.90;73.00;;;;;;5004497;28;20554;-78
2024/02/29 05:51:48;;;;;;;0.10;0.10;;;15.90;73.00;;;;;;5005818;28;20049;-79
2024/02/29 05:54:13;;;;;;;0.10;0.10;;;15.90;72.90;;;;;;4987472;28;20030;-79
2024/02/29 05:56:39;;;;;;;0.15;0.15;;;15.90;73.00;;;;;;5019455;28;20054;-79
2024/02/29 05:59:05;;;;;;;0.30;0.15;;;15.90;73.00;;;;;;5017982;28;20544;-79
2024/02/29 06:01:31;;;;;;;0.28;0.20;;;15.90;72.90;;;;;;5005703;28;20049;-79
2024/02/29 06:03:56;;;;;;;0.17;0.10;;;15.90;73.70;;;;;;5005020;28;20048;-79
2024/02/29 06:06:22;;;;;;;0.47;0.20;;;15.90;72.90;;;;;;4989894;28;20041;-78
2024/02/29 06:08:48;;;;;;;0.28;0.28;;;15.90;73.00;;;;;;5003941;28;20134;-78
2024/02/29 06:11:14;;;;;;;0.20;0.10;;;15.90;73.00;;;;;;4989455;28;20054;-78
2024/02/29 06:13:40;;;;;;;0.15;0.10;;;15.90;73.00;;;;;;5007882;28;20060;-78
2024/02/29 06:16:06;;;;;;;0.22;0.10;;;15.90;73.00;;;;;;5015584;28;20026;-78
2024/02/29 06:18:32;;;;;;;0.10;0.00;;;15.90;73.00;;;;;;5004575;28;20038;-78
2024/02/29 06:20:57;;;;;;;0.10;0.00;;;15.90;73.00;;;;;;5004476;28;20045;-78
2024/02/29 06:23:23;;;;;;;0.10;0.10;;;15.90;73.00;;;;;;5005161;28;20488;-78
2024/02/29 06:25:50;;;;;;;0.35;0.17;;;15.90;73.00;;;;;;5005184;28;20077;-78
2024/02/29 06:28:16;;;;;;;0.43;0.20;;;15.80;73.00;;;;;;5003350;28;20066;-78
2024/02/29 06:30:42;;;;;;;0.20;0.20;;;15.90;73.00;;;;;;5006046;28;20029;-78
2024/02/29 06:33:08;;;;;;;0.10;0.10;;;15.80;72.80;;;;;;5020906;28;20056;-78
2024/02/29 06:35:33;;;;;;;0.10;0.10;;;15.90;72.90;;;;;;5008657;28;20058;-78
2024/02/29 06:37:59;;;;;;;0.30;0.30;;;15.90;73.00;;;;;;5005067;28;20057;-78
2024/02/29 06:40:24;;;;;;;0.10;0.00;;;15.80;72.90;;;;;;5001305;28;20030;-78
2024/02/29 06:42:50;;;;;;;0.10;0.10;;;15.80;72.90;;;;;;5005283;28;20518;-77
2024/02/29 06:45:16;;;;;;;0.10;0.10;;;15.90;73.00;;;;;;5001853;28;20408;-78
2024/02/29 06:47:42;;;;;;;0.20;0.20;;;15.90;73.00;;;;;;5007653;28;20124;-78
2024/02/29 06:50:09;;;;;;;0.20;0.10;;;15.80;72.90;;;;;;5003039;28;20042;-77
2024/02/29 06:52:34;;;;;;;0.98;0.20;;;15.80;72.90;;;;;;5002157;28;20038;-78
2024/02/29 06:55:00;;;;;;;0.32;0.10;;;15.80;72.90;;;;;;5000881;28;20407;-78
2024/02/29 06:57:26;;;;;;;0.22;0.17;;;15.80;72.90;;;;;;5000984;28;20057;-78
2024/02/29 06:59:51;;;;;;;0.10;0.10;;;15.80;72.90;;;;;;5001756;28;20046;-78
2024/02/29 07:02:17;;;;;;;0.10;0.00;;;15.80;72.90;;;;;;5001307;28;20455;-77
2024/02/29 07:04:43;;;;;;;0.20;0.10;;;15.80;72.80;;;;;;4985057;28;20038;-77
2024/02/29 07:07:09;;;;;;;0.13;0.10;;;15.80;72.80;;;;;;4983784;28;20072;-78
2024/02/29 07:09:35;;;;;;;0.35;0.20;;;15.90;72.90;;;;;;5002233;28;20415;-77
2024/02/29 07:12:01;;;;;;;0.57;0.30;;;15.90;73.00;;;;;;5002532;28;20068;-77
2024/02/29 07:14:26;;;;;;;0.10;0.10;;;15.90;73.20;;;;;;5002843;28;20045;-76
2024/02/29 07:16:52;;;;;;;0.90;0.22;;;15.90;73.30;;;;;;5018294;28;20068;-77
2024/02/29 07:19:18;;;;;;;0.95;0.32;;;15.90;73.70;;;;;;5003478;28;20041;-77
2024/02/29 07:21:44;;;;;;;2.20;0.20;;;15.90;73.90;;;;;;5001363;28;20072;-77
2024/02/29 07:24:09;;;;;;;0.35;0.20;;;15.90;73.80;;;;;;5000304;28;20042;-77
2024/02/29 07:26:41;;;;;;;1.75;0.20;;;15.90;73.70;;;;;;4998787;28;20038;-78
2024/02/29 07:29:07;;;;;;;1.23;0.30;;;15.90;73.70;;;;;;4999200;28;20416;-77
2024/02/29 07:31:33;;;;;;;0.28;0.20;;;15.80;73.60;;;;;;5000479;28;20099;-77
2024/02/29 07:33:59;;;;;;;0.35;0.20;;;15.90;73.50;;;;;;5003649;28;20057;-78
2024/02/29 07:36:24;;;;;;;0.43;0.20;;;15.90;73.60;;;;;;5000117;28;20466;-79
2024/02/29 07:38:50;;;;;;;0.35;0.25;;;15.90;73.60;;;;;;5000565;28;20050;-77
2024/02/29 07:41:16;;;;;;;0.30;0.10;;;15.90;73.50;;;;;;5003154;28;20046;-77
2024/02/29 07:43:41;;;;;;;0.20;0.20;;;15.90;73.50;;;;;;4997057;28;20049;-76
2024/02/29 07:46:07;;;;;;;0.30;0.20;;;15.90;73.50;;;;;;5003529;28;20073;-77
2024/02/29 07:48:32;;;;;;;0.20;0.20;;;15.90;73.40;;;;;;5015342;28;20113;-76
2024/02/29 07:50:58;;;;;;;0.40;0.20;;;15.90;73.40;;;;;;5002501;28;20041;-78
2024/02/29 07:53:23;;;;;;;0.30;0.10;;;15.90;73.40;;;;;;5001743;28;20132;-76
2024/02/29 07:55:49;;;;;;;0.10;0.10;;;15.90;73.50;;;;;;5003669;28;20042;-76
2024/02/29 07:58:14;;;;;;;0.50;0.22;;;15.90;73.60;;;;;;5004821;28;20030;-76
2024/02/29 08:00:40;;;;;;;0.93;0.50;;;15.90;73.60;;;;;;5002668;28;20050;-76
2024/02/29 08:03:05;;;;;;;0.20;0.20;;;15.90;73.70;;;;;;5003224;28;20056;-77
2024/02/29 08:05:34;;;;;;;0.28;0.20;;;15.90;73.60;;;;;;5008945;28;20088;-76
2024/02/29 08:08:00;;;;;;;0.43;0.17;;;15.90;73.70;;;;;;5003756;28;20038;-76
2024/02/29 08:10:25;;;;;;;0.70;0.20;;;15.90;73.80;;;;;;4999506;28;20069;-76
2024/02/29 08:12:51;;;;;;;0.17;0.17;;;15.90;73.70;;;;;;5002038;28;20053;-76
2024/02/29 08:15:17;;;;;;;0.52;0.40;;;15.90;73.80;;;;;;5005246;28;20470;-76
2024/02/29 08:17:42;;;;;;;0.20;0.20;;;15.90;73.60;;;;;;5004029;28;20042;-76
2024/02/29 08:20:09;;;;;;;0.30;0.20;;;15.90;73.60;;;;;;5002825;28;20104;-77
2024/02/29 08:22:35;;;;;;;0.10;0.00;;;15.90;73.60;;;;;;5004970;28;20048;-76
2024/02/29 08:25:01;;;;;;;0.45;0.20;;;15.90;73.50;;;;;;5004983;28;20038;-76
2024/02/29 08:27:27;;;;;;;0.55;0.25;;;15.90;73.50;;;;;;5004532;28;20050;-76
2024/02/29 08:29:52;;;;;;;0.17;0.10;;;15.90;73.50;;;;;;5004817;28;20048;-77
2024/02/29 08:32:18;;;;;;;0.60;0.40;;;15.90;73.50;;;;;;5003901;28;20126;-76
2024/02/29 08:34:44;;;;;;;0.47;0.10;;;15.90;73.50;;;;;;5007150;28;20053;-76
2024/02/29 08:37:10;;;;;;;0.52;0.10;;;15.90;73.40;;;;;;5000886;28;20392;-77
2024/02/29 08:39:36;;;;;;;0.30;0.10;;;15.90;73.40;;;;;;5003345;28;20100;-77
2024/02/29 08:42:01;;;;;;;0.63;0.35;;;15.90;74.20;;;;;;5006018;28;20117;-76
2024/02/29 08:44:27;;;;;;;0.20;0.20;;;15.90;73.50;;;;;;5007695;28;20042;-76
2024/02/29 08:46:53;;;;;;;2.10;0.30;;;15.90;73.40;;;;;;5006306;28;20038;-76
2024/02/29 08:49:18;;;;;;;0.73;0.22;;;15.90;73.60;;;;;;5002753;28;20411;-77
2024/02/29 08:51:44;;;;;;;0.43;0.30;;;15.90;73.50;;;;;;5006494;28;20069;-76
2024/02/29 08:54:10;;;;;;;0.65;0.35;;;15.90;73.40;;;;;;5009148;28;20510;-76
2024/02/29 08:56:35;;;;;;;1.38;0.20;;;15.90;73.40;;;;;;5008899;28;20507;-76
2024/02/29 08:59:01;;;;;;;0.20;0.10;;;15.90;74.20;;;;;;5009142;28;20077;-76
2024/02/29 09:01:26;;;;;;;1.35;0.20;;;15.90;73.40;;;;;;5007681;28;20129;-76
2024/02/29 09:03:53;;;;;;;0.30;0.20;;;16.00;73.30;;;;;;5008065;28;20554;-76
2024/02/29 09:06:18;;;;;;;0.70;0.20;;;16.00;73.40;;;;;;5008901;28;20034;-76
2024/02/29 09:08:44;;;;;;;1.27;0.50;;;15.90;73.50;;;;;;5007603;28;20034;-76
2024/02/29 09:11:09;;;;;;;0.45;0.10;;;15.90;73.20;;;;;;5006995;28;20061;-77
2024/02/29 09:13:35;;;;;;;0.35;0.10;;;15.90;73.50;;;;;;5007893;28;20129;-76
2024/02/29 09:16:01;;;;;;;0.47;0.30;;;16.00;73.30;;;;;;5012670;28;20057;-76
2024/02/29 09:18:26;;;;;;;0.35;0.13;;;16.00;73.40;;;;;;5008577;28;20570;-76
2024/02/29 09:20:52;;;;;;;0.30;0.10;;;16.00;73.40;;;;;;5009291;28;20034;-76
2024/02/29 09:23:17;;;;;;;0.50;0.30;;;16.00;73.50;;;;;;5007922;28;20357;-76
2024/02/29 09:25:43;;;;;;;0.20;0.17;;;15.90;73.30;;;;;;5007996;28;20108;-76
2024/02/29 09:28:09;;;;;;;0.30;0.28;;;16.00;73.30;;;;;;5008945;28;20589;-76
2024/02/29 09:30:34;;;;;;;0.20;0.13;;;16.00;73.50;;;;;;5006104;28;20481;-76
2024/02/29 09:33:00;;;;;;;0.65;0.38;;;16.00;73.30;;;;;;5009259;28;20142;-76
2024/02/29 09:35:26;;;;;;;0.50;0.30;;;16.00;73.40;;;;;;5021917;28;20046;-76
2024/02/29 09:37:51;;;;;;;1.58;0.10;;;16.00;73.40;;;;;;5007837;28;20521;-76
2024/02/29 09:40:20;;;;;;;0.28;0.15;;;16.00;73.40;;;;;;5005822;28;20414;-76
2024/02/29 09:42:46;;;;;;;0.82;0.30;;;16.00;73.50;;;;;;5004851;28;20049;-76
2024/02/29 09:45:14;;;;;;;0.30;0.13;;;16.00;73.40;;;;;;5005461;28;20041;-76
2024/02/29 09:47:42;;;;;;;0.30;0.30;;;16.00;73.30;;;;;;5004062;28;20053;-76
2024/02/29 09:50:08;;;;;;;0.40;0.20;;;16.00;73.30;;;;;;5008481;28;20514;-76
2024/02/29 09:52:38;;;;;;;1.38;0.20;;;16.00;73.40;;;;;;5006246;28;20042;-76
2024/02/29 09:55:05;;;;;;;0.43;0.20;;;16.00;73.30;;;;;;5006070;28;20057;-77
2024/02/29 09:57:33;;;;;;;0.20;0.20;;;16.00;73.30;;;;;;5006899;28;20046;-76
2024/02/29 09:59:59;;;;;;;0.30;0.10;;;16.00;73.30;;;;;;5007092;28;20034;-77
2024/02/29 10:02:25;;;;;;;2.83;0.35;;;16.00;73.30;;;;;;5006809;28;20046;-76
2024/02/29 10:04:50;;;;;;;0.55;0.30;;;16.00;73.30;;;;;;5019259;28;20053;-76
2024/02/29 10:07:16;;;;;;;0.30;0.28;;;16.00;73.50;;;;;;5022783;28;20056;-76
2024/02/29 10:09:42;;;;;;;0.55;0.20;;;16.00;73.40;;;;;;5006518;28;20050;-76
2024/02/29 10:12:07;;;;;;;0.32;0.10;;;16.00;73.20;;;;;;5003149;28;20507;-76
2024/02/29 10:14:34;;;;;;;0.80;0.20;;;16.00;73.20;;;;;;5004278;28;20069;-77
2024/02/29 10:17:01;;;;;;;0.80;0.20;;;16.00;73.20;;;;;;5007560;28;20120;-76
2024/02/29 10:19:27;;;;;;;3.40;0.20;;;16.00;73.20;;;;;;5007584;28;20499;-76
2024/02/29 10:21:52;;;;;;;0.43;0.20;;;16.00;73.20;;;;;;5005623;28;20047;-77
2024/02/29 10:24:19;;;;;;;0.50;0.30;;;16.00;73.50;;;;;;5007214;28;20063;-77
2024/02/29 10:26:46;;;;;;;0.30;0.25;;;16.00;73.20;;;;;;5008103;28;20049;-77
2024/02/29 10:29:14;;;;;;;0.30;0.20;;;16.00;73.00;;;;;;5006780;28;20042;-77
2024/02/29 10:31:40;;;;;;;0.20;0.13;;;16.00;73.00;;;;;;5018006;28;20053;-76
2024/02/29 10:34:09;;;;;;;0.57;0.17;;;16.00;73.10;;;;;;5006956;28;20458;-76
2024/02/29 10:36:34;;;;;;;0.90;0.20;;;16.10;73.00;;;;;;5002909;28;20040;-77
2024/02/29 10:39:00;;;;;;;0.32;0.20;;;16.10;72.90;;;;;;5004259;28;20045;-77
2024/02/29 10:41:30;;;;;;;0.32;0.25;;;16.00;72.80;;;;;;5008347;28;20120;-76
2024/02/29 10:43:55;;;;;;;0.55;0.17;;;16.10;72.90;;;;;;5004943;28;20045;-77
2024/02/29 10:46:21;;;;;;;0.10;0.10;;;16.00;72.80;;;;;;5003620;28;20407;-76
2024/02/29 10:48:59;;;;;;;0.30;0.10;;;16.10;72.90;;;;;;5019304;28;20408;-76
2024/02/29 10:51:54;;;;;;;0.75;0.30;;;16.00;72.80;;;;;;5021247;28;20124;-76
2024/02/29 10:54:19;;;;;;;;;;;16.10;73.00;;;;;;5002088;28;20036;-76
2024/02/29 10:56:46;;;;;;;0.35;0.20;;;16.10;73.00;;;;;;5008637;28;19921;-76
2024/02/29 10:59:12;;;;;;;0.40;0.30;;;16.10;72.90;;;;;;4984680;28;20035;-76
2024/02/29 11:01:38;;;;;;;0.30;0.13;;;16.00;73.20;;;;;;5018609;28;20055;-76
2024/02/29 11:04:04;;;;;;;0.35;0.25;;;16.00;72.90;;;;;;5018272;28;20772;-77
2024/02/29 11:06:47;;;;;;;0.43;0.20;;;16.00;72.90;;;;;;5002320;28;20042;-76
2024/02/29 11:09:14;;;;;;;0.30;0.30;;;16.00;72.80;;;;;;4980637;28;20044;-76
2024/02/29 11:11:39;;;;;;;0.45;0.10;;;16.00;72.80;;;;;;5000589;28;20576;-76
2024/02/29 11:14:05;;;;;;;0.50;0.30;;;16.00;72.90;;;;;;5001383;28;20137;-76
2024/02/29 11:16:32;;;;;;;0.30;0.15;;;16.00;73.00;;;;;;5001035;28;20030;-76
2024/02/29 11:19:03;;;;;;;0.45;0.35;;;16.10;73.00;;;;;;4999451;28;20068;-76
2024/02/29 11:21:29;;;;;;;0.52;0.15;;;16.10;73.10;;;;;;4995409;28;20042;-76
2024/02/29 11:24:03;;;;;;;0.43;0.30;;;16.20;73.20;;;;;;5003292;28;20047;-76
2024/02/29 11:26:32;;;;;;;0.30;0.30;;;16.20;73.10;;;;;;5000386;28;20037;-77
2024/02/29 11:28:59;;;;;;;0.80;0.60;;;16.30;73.10;;;;;;5001415;28;20053;-76
2024/02/29 11:31:25;;;;;;;1.52;0.70;;;16.30;75.50;;;;;;5002293;28;20349;-76
2024/02/29 11:33:51;;;;;;;1.35;1.25;;;16.30;75.90;;;;;;4997239;28;20042;-77
2024/02/29 11:56:30;;;;;;;2.10;2.00;;;16.40;79.40;;;;;;5002394;28;20032;-82
2024/02/29 11:58:55;;;;;;;1.98;1.73;;;16.40;78.60;;;;;;5001856;28;20030;-82
2024/02/29 12:01:23;;;;;;;2.72;1.63;;;16.50;77.70;;;;;;4988781;28;20583;-82
2024/02/29 12:03:49;;;;;;;3.72;1.70;;;16.50;77.00;;;;;;5004069;28;20487;-81
2024/02/29 12:06:14;;;;;;;1.88;1.40;;;16.40;76.90;;;;;;5018715;28;20034;-79
2024/02/29 12:08:40;;;;;;;1.30;1.20;;;16.60;76.10;;;;;;4656364;28;10000171;-80
2024/02/29 12:11:06;;;;;;;1.48;1.38;;;16.50;75.80;;;;;;4995929;28;20028;-80
2024/02/29 12:13:31;;;;;;;1.20;1.10;;;16.50;75.60;;;;;;5016499;28;20450;-80
2024/02/29 12:15:57;;;;;;;1.65;1.30;;;16.50;75.80;;;;;;5013049;28;20114;-80
2024/02/29 12:18:22;;;;;;;1.23;1.13;;;16.50;75.80;;;;;;4985865;28;20045;-80
2024/02/29 12:20:48;;;;;;;1.40;1.30;;;16.40;75.70;;;;;;5002352;28;20165;-80
2024/02/29 12:23:14;;;;;;;1.05;1.00;;;16.40;75.70;;;;;;4984912;28;20025;-81
2024/02/29 12:25:42;;;;;;;1.00;1.00;;;16.40;75.70;;;;;;5001032;28;20053;-81
2024/02/29 12:28:09;;;;;;;1.17;1.08;;;16.40;75.50;;;;;;5013333;28;20060;-80
2024/02/29 12:30:34;;;;;;;0.98;0.98;;;16.50;75.50;;;;;;5015723;28;20510;-81
2024/02/29 12:33:00;;;;;;;1.30;1.20;;;16.50;75.40;;;;;;4983104;28;20033;-81
2024/02/29 12:35:28;;;;;;;1.05;1.00;;;16.50;75.30;;;;;;5003965;28;20495;-81
2024/02/29 12:37:54;;;;;;;1.17;1.08;;;16.50;75.20;;;;;;5013542;28;20042;-80
2024/02/29 12:40:19;;;;;;;2.45;1.02;;;16.50;75.00;;;;;;4999448;28;20229;-80
2024/02/29 12:42:46;;;;;;;2.25;1.35;;;16.50;75.00;;;;;;4983230;28;20038;-81
2024/02/29 12:45:11;;;;;;;1.20;1.10;;;16.50;75.00;;;;;;5009943;28;20141;-80
2024/02/29 12:47:37;;;;;;;2.42;1.17;;;16.50;74.90;;;;;;5008616;28;20501;-80
2024/02/29 12:50:09;;;;;;;1.17;0.82;;;16.50;74.80;;;;;;4996098;28;20465;-80
2024/02/29 12:52:35;;;;;;;1.27;1.17;;;16.50;74.60;;;;;;5001120;28;20065;-80
2024/02/29 12:55:04;;;;;;;0.70;0.70;;;16.50;74.60;;;;;;4999895;28;20029;-80
2024/02/29 13:00:05;;;;;;;0.80;0.80;;;16.50;74.50;;;;;;4822658;23;10001960;-78
2024/02/29 13:02:31;;;;;;;0.70;0.70;;;16.60;74.50;;;;;;5000030;28;20749;-78
2024/02/29 13:04:56;;;;;;;1.33;1.20;;;16.50;74.30;;;;;;5018854;28;20026;-77